Fortunia — V2OG3 — position and weather

sailwx.info

Track history (hours):
 
Tides and Currents Weather Stations Pressure Air Temp Water Temp Dewpoint Dewpoint Depression Visibility Wind Speed Wind Dir Waves Ship Positions

Fortunia

Last reported at 2014-Jul-31 16:16 UTC. Time now 2014-Jul-31 17:38 UTC.
Position N 36°46' E 003°04'.

Length 121 m; draft 6.3 m.

Type: Ship. MMSI: 304010638.

Date/timePositionNaut miles runAvg speedWind from/ knotsBaromVisibWave heightAir tempDewpointWater temp
2014-Jul-31 16:16N 36°46' E 003°04'0 0.0
2014-Jul-31 11:22N 36°46' E 003°04'0 0.0
2014-Jul-31 10:33N 36°46' E 003°04'0 0.0
2014-Jul-30 23:28N 36°46' E 003°04'126 3.6
2014-Jul-29 12:33N 38°48' E 002°25'1010.2
2014-Jul-29 11:33N 38°58' E 002°22'1010.4
2014-Jul-29 10:33N 39°08' E 002°18'1010.5
2014-Jul-29 09:33N 39°18' E 002°15'1010.5
2014-Jul-29 08:33N 39°28' E 002°12'1110.9
2014-Jul-29 07:33N 39°39' E 002°10'1111.1
2014-Jul-29 06:34N 39°50' E 002°10'1111.0
2014-Jul-29 05:33N 40°01' E 002°10'1111.0
2014-Jul-29 04:33N 40°12' E 002°10'1111.2
2014-Jul-29 03:34N 40°23' E 002°10'1111.2
2014-Jul-29 02:33N 40°34' E 002°10'1111.1
2014-Jul-29 01:34N 40°45' E 002°11'1111.0
2014-Jul-29 00:33N 40°57' E 002°10'1110.8
2014-Jul-28 23:31N 41°08' E 002°11'1210.6
2014-Jul-28 22:21N 41°20' E 002°10'1 0.1
2014-Jul-28 14:21N 41°21' E 002°10'3 3.7
2014-Jul-28 13:33N 41°18' E 002°09'0 0.1
2014-Jul-28 12:06N 41°19' E 002°09'1 0.9
2014-Jul-28 10:30N 41°19' E 002°11'2 0.2
2014-Jul-28 03:22N 41°20' E 002°12'0 0.0
2014-Jul-28 02:09N 41°20' E 002°12'0 0.0
2014-Jul-28 01:33N 41°20' E 002°12'0 0.0
2014-Jul-27 21:25N 41°20' E 002°12'0 0.0
2014-Jul-27 18:18N 41°20' E 002°12'15 3.7
2014-Jul-27 14:12N 41°06' E 002°04'5511.1
2014-Jul-27 09:13N 40°17' E 001°31'710.7
2014-Jul-27 08:33N 40°11' E 001°27'1111.2
2014-Jul-27 07:33N 40°01' E 001°20'1111.3
2014-Jul-27 06:34N 39°51' E 001°13'1211.4
2014-Jul-27 05:33N 39°41' E 001°07'2311.3
2014-Jul-27 03:29N 39°20' E 000°53'1111.1
2014-Jul-27 02:30N 39°10' E 000°46'6611.0
2014-Jul-26 20:32N 38°14' E 000°04'3310.9
2014-Jul-26 17:33N 37°46' W 000°19'1111.1
2014-Jul-26 16:33N 37°37' W 000°27'19 1.2
2014-Jul-26 00:32N 37°30' W 000°49'4711.5
2014-Jul-25 20:27N 37°21' E 000°09'1311.4
2014-Jul-25 19:20N 37°18' E 000°24'7511.1
2014-Jul-25 12:31N 37°03' E 001°57'3410.0
2014-Jul-25 09:11N 36°56' E 002°38'7 9.9
2014-Jul-25 08:31N 36°55' E 002°46'1010.1
2014-Jul-25 07:31N 36°52' E 002°58'9 7.6
2014-Jul-25 06:22N 36°46' E 003°05'1 0.1
2014-Jul-24 11:33N 36°46' E 003°04'0 0.0
2014-Jul-23 02:25N 36°46' E 003°04'1 0.2
2014-Jul-22 22:33N 36°46' E 003°04'2 2.2
2014-Jul-22 21:27N 36°47' E 003°07'0 0.0
2014-Jul-22 19:26N 36°47' E 003°07'0 0.0
2014-Jul-22 15:30N 36°47' E 003°07'0 0.0
2014-Jul-22 14:33N 36°47' E 003°07'0 0.0
2014-Jul-22 13:30N 36°47' E 003°07'0 0.0
2014-Jul-22 12:29N 36°47' E 003°07'0 0.0
2014-Jul-22 06:18N 36°47' E 003°07'  
Track history (hours):
 
Tides and Currents Weather Stations Pressure Air Temp Water Temp Dewpoint Dewpoint Depression Visibility Wind Speed Wind Dir Waves Ship Positions

Fortunia

Last reported at 2014-Jul-31 16:16 UTC. Time now 2014-Jul-31 17:38 UTC.
Position N 36°46' E 003°04'.

Length 121 m; draft 6.3 m.

Type: Ship. MMSI: 304010638.

Date/timePositionNaut miles runAvg speedWind from/ knotsBaromVisibWave heightAir tempDewpointWater temp
2014-Jul-31 16:16N 36°46' E 003°04'0 0.0
2014-Jul-31 11:22N 36°46' E 003°04'0 0.0
2014-Jul-31 10:33N 36°46' E 003°04'0 0.0
2014-Jul-30 23:28N 36°46' E 003°04'126 3.6
2014-Jul-29 12:33N 38°48' E 002°25'1010.2
2014-Jul-29 11:33N 38°58' E 002°22'1010.4
2014-Jul-29 10:33N 39°08' E 002°18'1010.5
2014-Jul-29 09:33N 39°18' E 002°15'1010.5
2014-Jul-29 08:33N 39°28' E 002°12'1110.9
2014-Jul-29 07:33N 39°39' E 002°10'1111.1
2014-Jul-29 06:34N 39°50' E 002°10'1111.0
2014-Jul-29 05:33N 40°01' E 002°10'1111.0
2014-Jul-29 04:33N 40°12' E 002°10'1111.2
2014-Jul-29 03:34N 40°23' E 002°10'1111.2
2014-Jul-29 02:33N 40°34' E 002°10'1111.1
2014-Jul-29 01:34N 40°45' E 002°11'1111.0
2014-Jul-29 00:33N 40°57' E 002°10'1110.8
2014-Jul-28 23:31N 41°08' E 002°11'1210.6
2014-Jul-28 22:21N 41°20' E 002°10'1 0.1
2014-Jul-28 14:21N 41°21' E 002°10'3 3.7
2014-Jul-28 13:33N 41°18' E 002°09'0 0.1
2014-Jul-28 12:06N 41°19' E 002°09'1 0.9
2014-Jul-28 10:30N 41°19' E 002°11'2 0.2
2014-Jul-28 03:22N 41°20' E 002°12'0 0.0
2014-Jul-28 02:09N 41°20' E 002°12'0 0.0
2014-Jul-28 01:33N 41°20' E 002°12'0 0.0
2014-Jul-27 21:25N 41°20' E 002°12'0 0.0
2014-Jul-27 18:18N 41°20' E 002°12'15 3.7
2014-Jul-27 14:12N 41°06' E 002°04'5511.1
2014-Jul-27 09:13N 40°17' E 001°31'710.7
2014-Jul-27 08:33N 40°11' E 001°27'1111.2
2014-Jul-27 07:33N 40°01' E 001°20'1111.3
2014-Jul-27 06:34N 39°51' E 001°13'1211.4
2014-Jul-27 05:33N 39°41' E 001°07'2311.3
2014-Jul-27 03:29N 39°20' E 000°53'1111.1
2014-Jul-27 02:30N 39°10' E 000°46'6611.0
2014-Jul-26 20:32N 38°14' E 000°04'3310.9
2014-Jul-26 17:33N 37°46' W 000°19'1111.1
2014-Jul-26 16:33N 37°37' W 000°27'19 1.2
2014-Jul-26 00:32N 37°30' W 000°49'4711.5
2014-Jul-25 20:27N 37°21' E 000°09'1311.4
2014-Jul-25 19:20N 37°18' E 000°24'7511.1
2014-Jul-25 12:31N 37°03' E 001°57'3410.0
2014-Jul-25 09:11N 36°56' E 002°38'7 9.9
2014-Jul-25 08:31N 36°55' E 002°46'1010.1
2014-Jul-25 07:31N 36°52' E 002°58'9 7.6
2014-Jul-25 06:22N 36°46' E 003°05'1 0.1
2014-Jul-24 11:33N 36°46' E 003°04'0 0.0
2014-Jul-23 02:25N 36°46' E 003°04'1 0.2
2014-Jul-22 22:33N 36°46' E 003°04'2 2.2
2014-Jul-22 21:27N 36°47' E 003°07'0 0.0
2014-Jul-22 19:26N 36°47' E 003°07'0 0.0
2014-Jul-22 15:30N 36°47' E 003°07'0 0.0
2014-Jul-22 14:33N 36°47' E 003°07'0 0.0
2014-Jul-22 13:30N 36°47' E 003°07'0 0.0
2014-Jul-22 12:29N 36°47' E 003°07'0 0.0
2014-Jul-22 06:18N 36°47' E 003°07'  

Dump ship's entire track history